Time;durP1;ratioP1;P1;durP2;ratioP2;P2;SDS_P1;SDS_P2;PMS_P1;PMS_P2;Temp;Humidity;BMP_temperature;BMP_pressure;BME280_temperature;BME280_humidity;BME280_pressure;Samples;Min_cycle;Max_cycle;Signal;HPM_P1;HPM_P2
2022/01/26 00:06:36;;;;;;;115.25;34.15;;;3.70;99.90;;;;;;5110299;28;20146;-75
2022/01/26 00:09:03;;;;;;;113.95;33.63;;;3.90;99.90;;;;;;5114553;28;20075;-75
2022/01/26 00:11:32;;;;;;;119.22;35.08;;;;;;;;;;5111216;28;20055;-75
2022/01/26 00:14:01;;;;;;;125.47;32.50;;;3.80;99.90;;;;;;5114480;28;20081;-75
2022/01/26 00:16:35;;;;;;;118.68;33.30;;;;;;;;;;5105160;28;20415;-75
2022/01/26 00:19:02;;;;;;;111.93;34.33;;;;;;;;;;5113986;28;20071;-75
2022/01/26 00:21:38;;;;;;;119.72;33.92;;;;;;;;;;5107855;28;20059;-75
2022/01/26 00:29:14;;;;;;;122.57;34.92;;;;;;;;;;5113715;28;20051;-75
2022/01/26 00:40:04;;;;;;;111.18;34.97;;;;;;;;;;5112054;28;20047;-75
2022/01/26 00:42:36;;;;;;;118.00;36.63;;;;;;;;;;5098910;28;20052;-75
2022/01/26 00:45:02;;;;;;;118.97;36.73;;;4.20;99.90;;;;;;5104640;28;20046;-75
2022/01/26 00:47:29;;;;;;;102.78;35.38;;;;;;;;;;5099627;28;20391;-75
2022/01/26 00:49:59;;;;;;;120.40;38.08;;;;;;;;;;5097575;28;20039;-75
2022/01/26 00:52:37;;;;;;;103.40;34.85;;;;;;;;;;5110222;28;20038;-75
2022/01/26 00:55:04;;;;;;;116.43;37.83;;;4.00;99.90;;;;;;5101222;28;20449;-75
2022/01/26 00:57:30;;;;;;;108.70;39.17;;;;;;;;;;5100601;28;20388;-75
2022/01/26 00:59:58;;;;;;;112.50;39.80;;;;;;;;;;5078045;28;20043;-75
2022/01/26 01:02:24;;;;;;;115.78;39.40;;;;;;;;;;5095996;28;20092;-75
2022/01/26 01:04:51;;;;;;;129.98;42.33;;;;;;;;;;5096097;28;20135;-75
2022/01/26 01:07:21;;;;;;;109.00;38.22;;;;;;;;;;5087143;28;20039;-75
2022/01/26 01:09:47;;;;;;;108.80;39.83;;;;;;;;;;5108876;28;20438;-75
2022/01/26 01:12:13;;;;;;;112.55;39.28;;;;;;;;;;5103655;28;20036;-75
2022/01/26 01:14:42;;;;;;;104.78;39.55;;;;;;;;;;5111926;28;20498;-75
2022/01/26 01:17:12;;;;;;;102.25;38.50;;;3.90;99.90;;;;;;5103755;28;20036;-75
2022/01/26 01:19:44;;;;;;;105.22;40.70;;;;;;;;;;5094834;28;20036;-75
2022/01/26 01:22:44;;;;;;;101.15;39.13;;;;;;;;;;5084453;28;20047;-75
2022/01/26 01:32:53;;;;;;;98.65;39.08;;;;;;;;;;5111408;28;20052;-75
2022/01/26 01:35:19;;;;;;;96.60;37.35;;;3.90;99.90;;;;;;5111223;28;20071;-75
2022/01/26 01:37:46;;;;;;;91.85;37.47;;;;;;;;;;5104067;28;20028;-75
2022/01/26 01:40:12;;;;;;;96.90;38.80;;;4.50;99.90;;;;;;5095619;28;20078;-75
2022/01/26 01:42:38;;;;;;;91.00;37.13;;;;;;;;;;5109171;28;20083;-75
2022/01/26 01:45:04;;;;;;;99.53;37.22;;;3.80;99.90;;;;;;5095421;28;20044;-75
2022/01/26 01:47:30;;;;;;;89.00;36.10;;;;;;;;;;5094667;28;20391;-75
2022/01/26 01:49:56;;;;;;;92.20;38.00;;;;;;;;;;5112391;28;20085;-75
2022/01/26 01:52:23;;;;;;;99.03;38.17;;;;;;;;;;5084415;28;20391;-75
2022/01/26 01:54:53;;;;;;;92.20;36.70;;;;;;;;;;5112283;28;20053;-75
2022/01/26 01:57:24;;;;;;;94.35;35.03;;;;;;;;;;5108535;28;20515;-75
2022/01/26 01:59:50;;;;;;;82.38;33.78;;;4.00;99.90;;;;;;5105211;28;20043;-75
2022/01/26 02:02:17;;;;;;;97.53;35.30;;;;;;;;;;5090724;28;20369;-75
2022/01/26 02:04:43;;;;;;;86.07;36.40;;;;;;;;;;5105696;28;20387;-75
2022/01/26 02:07:11;;;;;;;85.43;35.15;;;4.10;99.90;;;;;;5094198;28;20434;-75
2022/01/26 02:09:37;;;;;;;91.38;36.80;;;;;;;;;;5093403;28;20496;-75
2022/01/26 02:12:13;;;;;;;88.82;36.85;;;4.10;99.90;;;;;;5110183;28;20624;-75
2022/01/26 02:14:44;;;;;;;90.32;37.58;;;;;;;;;;5093571;28;20488;-75
2022/01/26 02:50:27;;;;;;;88.60;34.60;;;3.70;99.90;;;;;;5093814;28;20042;-75
2022/01/26 02:55:42;;;;;;;85.93;34.78;;;;;;;;;;5111122;28;20048;-74
2022/01/26 03:03:13;;;;;;;91.85;37.55;;;;;;;;;;5109576;28;20044;-74
2022/01/26 03:05:47;;;;;;;89.80;36.17;;;;;;;;;;5093566;28;20050;-74
2022/01/26 03:08:13;;;;;;;96.72;37.47;;;;;;;;;;5104279;28;20044;-73
2022/01/26 03:10:53;;;;;;;85.95;36.60;;;;;;;;;;5110810;28;20036;-73
2022/01/26 03:13:25;;;;;;;91.03;36.58;;;;;;;;;;5108792;28;20056;-74
2022/01/26 03:15:59;;;;;;;99.03;36.27;;;;;;;;;;5092250;28;20047;-73
2022/01/26 03:18:54;;;;;;;92.60;37.25;;;;;;;;;;5102685;28;20039;-73
2022/01/26 03:21:27;;;;;;;85.63;34.60;;;;;;;;;;5091598;28;20040;-73
2022/01/26 03:29:43;;;;;;;92.78;37.67;;;;;;;;;;5102240;28;20123;-73
2022/01/26 03:34:38;;;;;;;88.40;35.30;;;;;;;;;;5105749;28;20036;-73
2022/01/26 03:37:08;;;;;;;78.15;35.25;;;;;;;;;;5109555;28;20038;-73
2022/01/26 03:39:41;;;;;;;91.28;38.20;;;;;;;;;;5084117;28;20383;-73
2022/01/26 03:42:13;;;;;;;94.20;35.88;;;;;;;;;;5104656;28;20056;-73
2022/01/26 03:44:39;;;;;;;88.30;37.57;;;;;;;;;;5100181;28;20047;-73
2022/01/26 03:47:06;;;;;;;91.55;36.38;;;;;;;;;;5108956;28;20065;-73
2022/01/26 03:49:34;;;;;;;89.70;36.72;;;;;;;;;;5102279;28;20044;-73
2022/01/26 03:52:00;;;;;;;91.60;35.33;;;;;;;;;;5107549;28;20044;-73
2022/01/26 03:54:26;;;;;;;88.35;34.72;;;;;;;;;;5102604;28;20097;-73
2022/01/26 03:56:52;;;;;;;91.50;35.80;;;;;;;;;;5090954;28;20129;-73
2022/01/26 03:59:18;;;;;;;90.07;35.28;;;3.20;99.90;;;;;;5097619;28;20031;-73
2022/01/26 04:01:44;;;;;;;83.50;35.05;;;;;;;;;;5098852;28;20052;-73
2022/01/26 04:04:10;;;;;;;90.40;36.42;;;;;;;;;;5093431;28;20040;-74
2022/01/26 04:06:36;;;;;;;91.28;36.97;;;;;;;;;;5093190;28;20373;-73
2022/01/26 04:09:06;;;;;;;92.30;36.83;;;3.70;99.90;;;;;;5074961;28;20043;-73
2022/01/26 04:11:45;;;;;;;94.93;38.20;;;;;;;;;;5080831;28;20055;-73
2022/01/26 04:14:14;;;;;;;92.43;36.53;;;3.80;99.90;;;;;;5076427;28;20032;-73
2022/01/26 04:16:42;;;;;;;87.85;36.05;;;;;;;;;;5108648;28;20043;-73
2022/01/26 04:19:08;;;;;;;93.82;36.78;;;;;;;;;;5091609;28;20036;-74
2022/01/26 04:26:41;;;;;;;89.72;37.03;;;;;;;;;;5092969;28;20051;-73
2022/01/26 04:29:12;;;;;;;95.28;36.80;;;;;;;;;;5094725;28;20047;-74
2022/01/26 04:31:38;;;;;;;83.40;34.95;;;;;;;;;;5109254;28;20039;-74
2022/01/26 04:34:05;;;;;;;80.95;34.15;;;;;;;;;;5108561;28;20035;-74
2022/01/26 04:36:40;;;;;;;90.07;35.35;;;;;;;;;;5102103;28;20039;-74
2022/01/26 04:39:11;;;;;;;81.40;33.55;;;4.50;99.90;;;;;;5109914;28;20047;-74
2022/01/26 04:41:46;;;;;;;81.25;33.35;;;;;;;;;;5093410;28;20058;-73
2022/01/26 04:44:22;;;;;;;91.18;35.25;;;;;;;;;;5097267;28;20047;-74
2022/01/26 04:46:48;;;;;;;84.57;33.97;;;;;;;;;;5083709;28;20071;-74
2022/01/26 04:49:14;;;;;;;83.00;33.90;;;;;;;;;;5113092;28;20130;-74
2022/01/26 04:51:41;;;;;;;83.55;31.80;;;;;;;;;;5098634;28;20078;-74
2022/01/26 04:54:08;;;;;;;83.00;32.40;;;;;;;;;;5086051;28;20066;-73
2022/01/26 04:56:34;;;;;;;89.05;34.22;;;;;;;;;;5098963;28;20036;-74
2022/01/26 04:59:00;;;;;;;87.57;32.75;;;;;;;;;;5096528;28;20055;-74
2022/01/26 05:01:26;;;;;;;93.07;33.67;;;;;;;;;;5107207;28;20035;-74
2022/01/26 05:03:52;;;;;;;92.20;32.08;;;;;;;;;;5096109;28;20485;-73
2022/01/26 05:06:18;;;;;;;86.10;32.88;;;;;;;;;;5101312;28;20050;-73
2022/01/26 05:08:44;;;;;;;89.72;32.78;;;;;;;;;;5095096;28;20388;-74
2022/01/26 05:11:14;;;;;;;88.15;33.13;;;;;;;;;;5096861;28;20075;-74
2022/01/26 05:13:40;;;;;;;92.13;32.40;;;;;;;;;;5113522;28;20040;-74
2022/01/26 05:16:08;;;;;;;85.63;31.13;;;;;;;;;;5104164;28;20039;-74
2022/01/26 05:18:35;;;;;;;85.20;31.95;;;;;;;;;;5094684;28;20040;-73
2022/01/26 05:21:01;;;;;;;90.95;31.73;;;;;;;;;;5100368;28;20475;-73
2022/01/26 05:23:27;;;;;;;84.82;31.60;;;;;;;;;;5079559;28;20032;-74
2022/01/26 05:25:53;;;;;;;85.28;31.65;;;;;;;;;;5083846;28;20119;-74
2022/01/26 05:28:19;;;;;;;87.32;31.75;;;;;;;;;;5095950;28;20040;-74
2022/01/26 05:30:45;;;;;;;89.43;32.30;;;;;;;;;;5111537;28;20156;-73
2022/01/26 05:33:11;;;;;;;83.55;31.98;;;;;;;;;;5111696;28;20172;-74
2022/01/26 05:35:37;;;;;;;100.20;31.65;;;;;;;;;;5109752;28;20036;-73
2022/01/26 05:38:03;;;;;;;85.25;31.05;;;;;;;;;;5096790;28;20119;-74
2022/01/26 05:40:30;;;;;;;89.13;33.10;;;;;;;;;;5082959;28;20059;-74
2022/01/26 05:42:55;;;;;;;94.13;32.20;;;3.20;99.90;;;;;;5102091;28;20055;-74
2022/01/26 05:45:33;;;;;;;84.57;31.77;;;;;;;;;;5103253;28;20032;-73
2022/01/26 05:48:02;;;;;;;91.65;32.20;;;;;;;;;;5112131;28;20035;-74
2022/01/26 05:50:29;;;;;;;86.38;31.98;;;;;;;;;;5103051;28;20061;-74
2022/01/26 05:52:55;;;;;;;96.55;33.00;;;;;;;;;;5094193;28;20032;-74
2022/01/26 05:55:21;;;;;;;88.60;33.53;;;;;;;;;;5110087;28;20061;-74
2022/01/26 05:57:47;;;;;;;90.97;34.17;;;;;;;;;;5093968;28;20043;-73
2022/01/26 06:00:13;;;;;;;90.72;34.17;;;3.70;99.90;;;;;;5102740;28;20074;-74
2022/01/26 06:02:40;;;;;;;89.82;34.25;;;;;;;;;;5089789;28;20050;-74
2022/01/26 06:05:06;;;;;;;96.40;36.25;;;4.00;99.90;;;;;;5112321;28;20467;-74
2022/01/26 06:07:32;;;;;;;92.80;35.95;;;;;;;;;;5091805;28;20505;-73
2022/01/26 06:09:58;;;;;;;90.72;35.47;;;;;;;;;;5110119;28;20104;-74
2022/01/26 06:12:24;;;;;;;102.57;36.38;;;;;;;;;;5099910;28;20036;-74
2022/01/26 06:14:52;;;;;;;94.80;37.20;;;;;;;;;;5093515;28;20189;-71
2022/01/26 06:17:18;;;;;;;90.00;35.25;;;;;;;;;;5093479;28;20036;-74
2022/01/26 06:19:44;;;;;;;96.13;35.92;;;;;;;;;;5092926;28;20063;-74
2022/01/26 06:22:10;;;;;;;94.88;35.38;;;;;;;;;;5107315;28;20039;-74
2022/01/26 06:24:36;;;;;;;94.72;35.15;;;;;;;;;;5110324;28;20070;-74
2022/01/26 06:27:02;;;;;;;90.47;35.90;;;3.40;99.90;;;;;;5088320;28;20035;-74
2022/01/26 06:29:30;;;;;;;93.45;35.47;;;;;;;;;;5111695;28;20036;-74
2022/01/26 06:31:56;;;;;;;98.75;36.88;;;;;;;;;;5101331;28;20476;-74
2022/01/26 06:34:23;;;;;;;95.82;36.25;;;;;;;;;;5094550;28;20077;-74
2022/01/26 06:36:49;;;;;;;99.95;36.63;;;;;;;;;;5102544;28;20040;-74
2022/01/26 06:39:15;;;;;;;96.35;36.13;;;;;;;;;;5084528;28;20036;-74
2022/01/26 06:41:54;;;;;;;98.85;36.67;;;3.70;99.90;;;;;;5103929;28;20056;-74
2022/01/26 06:44:27;;;;;;;101.35;34.75;;;;;;;;;;5106370;28;20080;-74
2022/01/26 06:51:48;;;;;;;86.43;34.58;;;;;;;;;;5102916;28;20059;-74
2022/01/26 06:54:15;;;;;;;92.22;34.25;;;;;;;;;;5094035;28;20082;-74
2022/01/26 06:56:41;;;;;;;90.90;33.83;;;;;;;;;;5098073;28;20035;-74
2022/01/26 06:59:09;;;;;;;81.40;30.75;;;;;;;;;;5094438;28;20507;-74
2022/01/26 07:01:35;;;;;;;91.95;32.15;;;;;;;;;;5090115;28;20507;-74
2022/01/26 07:04:02;;;;;;;81.30;30.70;;;;;;;;;;5105107;28;20058;-74
2022/01/26 07:06:28;;;;;;;82.15;29.35;;;;;;;;;;5090721;28;20051;-74
2022/01/26 07:08:54;;;;;;;69.72;28.92;;;;;;;;;;5092655;28;20121;-74
2022/01/26 07:11:22;;;;;;;75.40;29.10;;;;;;;;;;5094080;28;20028;-74
2022/01/26 07:13:50;;;;;;;71.68;27.98;;;;;;;;;;5083616;28;20032;-74
2022/01/26 07:21:45;;;;;;;74.45;31.25;;;;;;;;;;5105863;28;20055;-74
2022/01/26 07:24:11;;;;;;;75.35;29.58;;;;;;;;;;5093437;28;20043;-74
2022/01/26 07:26:37;;;;;;;77.50;29.33;;;;;;;;;;5087008;28;20035;-74
2022/01/26 07:29:08;;;;;;;74.63;29.30;;;4.10;99.90;;;;;;5111084;28;20445;-74
2022/01/26 07:31:36;;;;;;;71.38;28.02;;;;;;;;;;5108946;28;20039;-74
2022/01/26 07:34:02;;;;;;;76.07;29.38;;;;;;;;;;5091033;28;20133;-74
2022/01/26 07:36:28;;;;;;;78.45;30.20;;;;;;;;;;5091562;28;20111;-74
2022/01/26 07:39:04;;;;;;;81.68;28.85;;;;;;;;;;5091665;28;20043;-74
2022/01/26 07:41:30;;;;;;;77.53;30.13;;;;;;;;;;5091702;28;20040;-74
2022/01/26 07:43:56;;;;;;;81.90;32.10;;;;;;;;;;5091376;28;20766;-74
2022/01/26 07:46:24;;;;;;;88.10;32.60;;;;;;;;;;5077547;28;20097;-74
2022/01/26 07:48:50;;;;;;;84.43;33.10;;;;;;;;;;5107525;28;20496;-74
2022/01/26 07:51:16;;;;;;;80.85;31.80;;;;;;;;;;5108056;28;20035;-80
2022/01/26 07:53:44;;;;;;;90.05;32.88;;;;;;;;;;5098383;28;20042;-74
2022/01/26 07:56:10;;;;;;;96.53;37.25;;;;;;;;;;5091775;28;20036;-74
2022/01/26 07:58:36;;;;;;;81.00;31.50;;;;;;;;;;5087946;28;20047;-82
2022/01/26 08:01:03;;;;;;;91.70;34.60;;;;;;;;;;5108838;28;20028;-74
2022/01/26 08:03:33;;;;;;;79.72;31.30;;;3.70;99.90;;;;;;5100718;28;20067;-74
2022/01/26 08:06:01;;;;;;;91.38;34.83;;;4.00;99.90;;;;;;5092151;28;20028;-74
2022/01/26 08:08:28;;;;;;;94.53;35.30;;;;;;;;;;5100118;28;20047;-74
2022/01/26 08:10:55;;;;;;;88.18;32.90;;;;;;;;;;5089022;28;20043;-74
2022/01/26 08:13:21;;;;;;;86.55;33.30;;;;;;;;;;5103402;28;20109;-74
2022/01/26 08:15:47;;;;;;;102.22;35.28;;;;;;;;;;5110161;28;20043;-74
2022/01/26 08:18:13;;;;;;;100.65;35.10;;;;;;;;;;5088817;28;20043;-74
2022/01/26 08:20:42;;;;;;;92.50;35.38;;;;;;;;;;5100280;28;20071;-74
2022/01/26 08:23:08;;;;;;;88.78;34.58;;;;;;;;;;5112713;28;20375;-74
2022/01/26 08:25:35;;;;;;;83.40;32.13;;;;;;;;;;5087851;28;20036;-74
2022/01/26 08:28:08;;;;;;;94.53;35.95;;;;;;;;;;5099665;28;20040;-74
2022/01/26 08:30:38;;;;;;;86.53;32.65;;;;;;;;;;5083229;28;20052;-75
2022/01/26 08:33:05;;;;;;;100.43;36.10;;;;;;;;;;5091668;28;20043;-74
2022/01/26 08:35:32;;;;;;;81.18;31.83;;;;;;;;;;5095180;28;20039;-74
2022/01/26 08:37:58;;;;;;;93.13;36.85;;;;;;;;;;5080782;28;20032;-75
2022/01/26 08:40:24;;;;;;;104.45;34.63;;;;;;;;;;5099080;28;20032;-74
2022/01/26 08:42:50;;;;;;;84.57;33.70;;;;;;;;;;5105401;28;20057;-74
2022/01/26 08:45:16;;;;;;;92.55;32.72;;;;;;;;;;5103521;28;20127;-74
2022/01/26 08:47:43;;;;;;;97.07;32.03;;;;;;;;;;5099691;28;20044;-74
2022/01/26 08:50:09;;;;;;;84.05;30.88;;;4.70;99.90;;;;;;5079393;28;20036;-74
2022/01/26 08:52:35;;;;;;;81.65;31.30;;;;;;;;;;5113412;28;20055;-75
2022/01/26 08:55:01;;;;;;;78.25;30.33;;;;;;;;;;5095761;28;20032;-74
2022/01/26 08:57:27;;;;;;;83.53;30.90;;;;;;;;;;5083146;28;20452;-75
2022/01/26 08:59:53;;;;;;;76.32;29.67;;;;;;;;;;5104150;28;20032;-75
2022/01/26 09:02:19;;;;;;;84.05;30.52;;;;;;;;;;5093773;28;20039;-75
2022/01/26 09:04:46;;;;;;;76.22;26.60;;;;;;;;;;5107631;28;20039;-74
2022/01/26 09:07:15;;;;;;;74.40;26.88;;;;;;;;;;5098682;28;20617;-75
2022/01/26 09:09:45;;;;;;;78.55;27.17;;;;;;;;;;5102827;28;20040;-75
2022/01/26 09:12:17;;;;;;;77.97;26.85;;;4.20;99.90;;;;;;5094537;28;20043;-75
2022/01/26 09:14:43;;;;;;;68.18;26.52;;;4.40;99.90;;;;;;5107601;28;20048;-74
2022/01/26 09:17:11;;;;;;;67.05;25.85;;;;;;;;;;5112081;28;20492;-75
2022/01/26 09:19:38;;;;;;;82.00;26.65;;;;;;;;;;5111233;28;20106;-75
2022/01/26 09:22:10;;;;;;;68.78;27.67;;;4.40;99.90;;;;;;5094486;28;20046;-74
2022/01/26 09:24:37;;;;;;;70.43;27.17;;;;;;;;;;5102229;28;20040;-75
2022/01/26 09:27:06;;;;;;;74.90;26.83;;;4.10;99.90;;;;;;5094376;28;20036;-75
2022/01/26 09:29:32;;;;;;;74.55;26.80;;;;;;;;;;5103660;28;20074;-74
2022/01/26 09:32:03;;;;;;;69.82;27.92;;;4.40;99.90;;;;;;5095827;28;20085;-75
2022/01/26 09:34:30;;;;;;;73.40;27.40;;;;;;;;;;5104649;28;20036;-75
2022/01/26 09:36:57;;;;;;;69.20;25.45;;;4.30;99.90;;;;;;5112467;28;20093;-75
2022/01/26 09:39:23;;;;;;;72.85;26.60;;;4.50;99.90;;;;;;5099933;28;20038;-75
2022/01/26 09:41:50;;;;;;;73.00;26.10;;;4.40;99.90;;;;;;5111753;28;20055;-75
2022/01/26 09:44:17;;;;;;;70.43;26.42;;;4.50;99.90;;;;;;5107409;28;20063;-75
2022/01/26 09:46:44;;;;;;;75.57;28.25;;;4.60;99.90;;;;;;5094074;28;20051;-75
2022/01/26 09:49:11;;;;;;;69.55;26.48;;;4.40;99.90;;;;;;5088979;28;20460;-75
2022/01/26 09:51:41;;;;;;;66.45;25.23;;;;;;;;;;5084374;28;20039;-75
2022/01/26 09:54:13;;;;;;;72.05;27.30;;;4.50;99.90;;;;;;5098863;28;20118;-74
2022/01/26 09:56:39;;;;;;;75.40;27.80;;;;;;;;;;5100749;28;20111;-75
2022/01/26 09:59:06;;;;;;;77.35;29.13;;;;;;;;;;5095459;28;20376;-75
2022/01/26 10:01:41;;;;;;;78.47;29.75;;;4.40;99.90;;;;;;5110504;28;20044;-75
2022/01/26 10:04:07;;;;;;;85.93;28.98;;;;;;;;;;5079064;28;20040;-76
2022/01/26 10:06:35;;;;;;;80.75;29.23;;;;;;;;;;5110531;28;20071;-75
2022/01/26 10:09:38;;;;;;;74.65;29.40;;;;;;;;;;5079652;28;20069;-75
2022/01/26 10:17:39;;;;;;;78.22;25.88;;;;;;;;;;5102675;28;20093;-75
2022/01/26 10:20:06;;;;;;;76.75;27.95;;;4.50;99.90;;;;;;5101060;28;20039;-75
2022/01/26 10:22:36;;;;;;;78.30;27.73;;;4.50;99.90;;;;;;5112036;28;20491;-75
2022/01/26 10:25:14;;;;;;;74.95;26.48;;;4.50;99.90;;;;;;5092809;28;20043;-76
2022/01/26 10:27:41;;;;;;;74.40;26.73;;;;;;;;;;5098991;28;20036;-75
2022/01/26 10:30:09;;;;;;;76.65;27.05;;;;;;;;;;5101143;28;20090;-75
2022/01/26 10:32:35;;;;;;;65.82;25.88;;;;;;;;;;5099806;28;20043;-75
2022/01/26 10:35:04;;;;;;;72.43;26.10;;;4.50;99.90;;;;;;5088331;28;20185;-75
2022/01/26 10:37:30;;;;;;;85.38;27.45;;;;;;;;;;5105583;28;20046;-75
2022/01/26 10:40:12;;;;;;;75.15;29.98;;;4.80;99.90;;;;;;5103342;28;20043;-75
2022/01/26 10:42:38;;;;;;;74.97;28.55;;;;;;;;;;5091445;28;20048;-75
2022/01/26 10:45:19;;;;;;;75.50;27.65;;;;;;;;;;5093942;28;20055;-75
2022/01/26 10:47:47;;;;;;;68.55;25.70;;;;;;;;;;5113224;28;20047;-75
2022/01/26 10:50:42;;;;;;;81.80;28.05;;;;;;;;;;5113390;28;20176;-75
2022/01/26 10:53:14;;;;;;;72.60;28.52;;;4.60;99.90;;;;;;5096177;28;20039;-75
2022/01/26 10:55:41;;;;;;;76.68;27.63;;;;;;;;;;5096392;28;20400;-75
2022/01/26 10:58:07;;;;;;;74.82;27.15;;;;;;;;;;5095241;28;20040;-75
2022/01/26 11:00:41;;;;;;;75.50;28.05;;;4.70;99.90;;;;;;5099477;27;20062;-75
2022/01/26 11:03:07;;;;;;;76.22;27.67;;;;;;;;;;5110644;28;20035;-75
2022/01/26 11:05:33;;;;;;;80.20;27.23;;;;;;;;;;5095334;28;20398;-75
2022/01/26 11:08:01;;;;;;;86.68;29.10;;;4.70;99.90;;;;;;5079848;28;20100;-75
2022/01/26 11:10:32;;;;;;;72.40;27.52;;;4.80;99.90;;;;;;5092408;28;20507;-75
2022/01/26 11:12:58;;;;;;;77.30;27.98;;;;;;;;;;5106351;28;20387;-75
2022/01/26 11:15:24;;;;;;;73.07;27.77;;;;;;;;;;5108115;28;20424;-77
2022/01/26 11:17:51;;;;;;;80.15;28.65;;;;;;;;;;5098820;28;20042;-75
2022/01/26 11:20:34;;;;;;;69.75;28.08;;;4.70;99.90;;;;;;5099825;28;20040;-76
2022/01/26 11:23:04;;;;;;;76.30;28.08;;;;;;;;;;5091819;28;20039;-75
2022/01/26 11:25:43;;;;;;;76.90;29.13;;;4.90;99.90;;;;;;5092075;28;20059;-75
2022/01/26 11:28:19;;;;;;;73.60;29.13;;;4.70;99.90;;;;;;5092291;28;20173;-75
2022/01/26 11:30:46;;;;;;;78.53;28.13;;;;;;;;;;5092348;28;20051;-75
2022/01/26 11:33:21;;;;;;;76.72;27.48;;;4.70;99.90;;;;;;5092102;28;20040;-75
2022/01/26 11:35:49;;;;;;;70.75;27.70;;;4.70;99.90;;;;;;5075217;28;20043;-75
2022/01/26 11:46:54;;;;;;;71.13;27.13;;;;;;;;;;5092149;28;20040;-75
2022/01/26 11:49:37;;;;;;;71.38;27.45;;;5.00;99.90;;;;;;5092209;28;20032;-76
2022/01/26 11:52:05;;;;;;;70.07;26.17;;;5.00;99.90;;;;;;5093380;28;20044;-75
2022/01/26 11:54:52;;;;;;;72.18;24.83;;;4.90;99.90;;;;;;5080347;28;20090;-74
2022/01/26 11:57:20;;;;;;;67.03;26.17;;;;;;;;;;5102193;28;20110;-75
2022/01/26 11:59:59;;;;;;;71.90;25.60;;;5.10;99.90;;;;;;5105606;28;20491;-76
2022/01/26 12:02:37;;;;;;;74.13;25.70;;;5.20;99.90;;;;;;5111816;28;20046;-76
2022/01/26 12:05:06;;;;;;;70.00;26.50;;;5.20;99.90;;;;;;5106622;28;20119;-75
2022/01/26 12:07:33;;;;;;;69.38;24.58;;;;;;;;;;5120340;27;20375;-75
2022/01/26 12:10:03;;;;;;;64.18;24.30;;;;;;;;;;5102915;27;20395;-75
2022/01/26 12:12:29;;;;;;;63.25;24.42;;;;;;;;;;5096088;28;20102;-75
2022/01/26 12:15:11;;;;;;;62.83;24.70;;;5.40;99.90;;;;;;5095874;28;20040;-75
2022/01/26 12:17:57;;;;;;;69.22;23.48;;;4.80;99.90;;;;;;5096039;28;20043;-75
2022/01/26 12:42:13;;;;;;;74.05;25.17;;;5.40;99.90;;;;;;5104774;28;20538;-75
2022/01/26 12:44:40;;;;;;;61.90;24.75;;;;;;;;;;5103410;28;20047;-75
2022/01/26 12:47:06;;;;;;;65.65;24.00;;;5.50;99.90;;;;;;5098918;28;20499;-74
2022/01/26 12:49:32;;;;;;;81.40;26.90;;;;;;;;;;5110908;28;20036;-75
2022/01/26 12:51:58;;;;;;;76.35;26.80;;;;;;;;;;5105740;28;20036;-75
2022/01/26 12:54:26;;;;;;;76.22;26.88;;;;;;;;;;5115169;28;20488;-75
2022/01/26 12:57:06;;;;;;;63.33;24.75;;;5.30;99.90;;;;;;5113635;28;20047;-76
2022/01/26 12:59:32;;;;;;;69.45;25.05;;;;;;;;;;5106567;28;20070;-73
2022/01/26 13:01:58;;;;;;;63.47;25.92;;;;;;;;;;5079609;28;20494;-73
2022/01/26 13:04:27;;;;;;;70.22;25.05;;;4.90;99.90;;;;;;5093883;28;20407;-74
2022/01/26 13:06:53;;;;;;;69.30;25.27;;;;;;;;;;5094209;28;20036;-74
2022/01/26 13:09:27;;;;;;;63.55;24.98;;;5.50;99.90;;;;;;5114281;28;20122;-75
2022/01/26 13:11:59;;;;;;;66.75;25.98;;;5.40;99.90;;;;;;5115352;28;20043;-75
2022/01/26 13:14:33;;;;;;;68.30;24.45;;;5.60;99.90;;;;;;5115175;28;20048;-74
2022/01/26 13:17:08;;;;;;;70.32;23.83;;;;;;;;;;5115028;28;20043;-75
2022/01/26 13:22:35;;;;;;;68.55;23.63;;;5.60;99.90;;;;;;5114911;28;20097;-74
2022/01/26 13:27:35;;;;;;;58.63;21.95;;;;;;;;;;5115258;28;20506;-75
2022/01/26 13:30:28;;;;;;;77.32;25.13;;;5.60;99.90;;;;;;5098132;28;20046;-74
2022/01/26 13:38:14;;;;;;;68.43;24.90;;;;;;;;;;5114937;28;20499;-75
2022/01/26 13:44:45;;;;;;;64.43;24.92;;;5.50;99.90;;;;;;5098978;28;20112;-74
2022/01/26 13:51:33;;;;;;;63.60;24.05;;;;;;;;;;5114650;28;20071;-74
2022/01/26 13:54:26;;;;;;;64.63;24.08;;;;;;;;;;5114496;28;20039;-74
2022/01/26 13:59:38;;;;;;;59.08;23.30;;;;;;;;;;5097819;28;20479;-75
2022/01/26 14:02:03;;;;;;;59.78;23.63;;;5.70;99.90;;;;;;5114223;28;20039;-75
2022/01/26 14:04:29;;;;;;;60.42;22.17;;;;;;;;;;5097472;28;20046;-75
2022/01/26 14:06:56;;;;;;;58.35;22.90;;;;;;;;;;5097297;28;20074;-75
2022/01/26 14:09:22;;;;;;;62.65;22.17;;;;;;;;;;5114536;28;20487;-74
2022/01/26 14:11:49;;;;;;;61.28;22.52;;;;;;;;;;5097189;28;20036;-74
2022/01/26 14:14:23;;;;;;;67.53;24.50;;;5.80;99.90;;;;;;5114776;28;20048;-75
2022/01/26 14:16:57;;;;;;;59.92;21.85;;;;;;;;;;5081604;28;20191;-75
2022/01/26 14:25:07;;;;;;;62.13;22.65;;;;;;;;;;5099347;28;20131;-75
2022/01/26 14:27:44;;;;;;;58.42;21.63;;;;;;;;;;5113763;28;20050;-74
2022/01/26 14:30:33;;;;;;;59.13;22.20;;;5.40;99.90;;;;;;5114055;28;20429;-74
2022/01/26 15:34:45;;;;;;;55.60;19.90;;;;;;;;;;5112785;28;20403;-75
2022/01/26 15:40:08;;;;;;;60.25;20.90;;;;;;;;;;5112552;28;20055;-75
2022/01/26 15:49:56;;;;;;;60.40;20.85;;;;;;;;;;5094000;28;20092;-75
2022/01/26 15:52:44;;;;;;;62.67;20.27;;;;;;;;;;5073872;28;20460;-75
2022/01/26 15:58:14;;;;;;;57.72;20.73;;;;;;;;;;5111693;28;20113;-75
2022/01/26 16:17:29;;;;;;;49.88;19.63;;;;;;;;;;5097390;28;20051;-72
2022/01/26 16:39:08;;;;;;;54.00;19.40;;;;;;;;;;5109273;28;20046;-73
2022/01/26 16:53:31;;;;;;;55.75;20.63;;;;;;;;;;5115285;28;20069;-73
2022/01/26 18:49:18;;;;;;;50.67;18.80;;;;;;;;;;5113301;28;20043;-75
2022/01/26 18:51:55;;;;;;;58.22;19.98;;;;;;;;;;5108701;28;20383;-74
2022/01/26 18:54:26;;;;;;;42.90;18.65;;;6.30;99.90;;;;;;5112895;28;20123;-74
2022/01/26 18:56:53;;;;;;;49.17;19.75;;;6.20;99.90;;;;;;5109303;28;20040;-74
2022/01/26 18:59:19;;;;;;;44.42;20.25;;;;;;;;;;5113436;28;20083;-74
2022/01/26 19:01:46;;;;;;;44.65;19.95;;;6.20;99.90;;;;;;5084014;28;20491;-74
2022/01/26 19:04:12;;;;;;;53.78;19.95;;;;;;;;;;5111309;28;20036;-74
2022/01/26 19:06:41;;;;;;;51.70;20.25;;;;;;;;;;5107947;28;20059;-74
2022/01/26 19:09:07;;;;;;;48.20;19.80;;;;;;;;;;5092748;28;20396;-74
2022/01/26 19:11:33;;;;;;;47.70;18.40;;;;;;;;;;5084555;28;20377;-74
2022/01/26 19:14:01;;;;;;;46.70;19.48;;;;;;;;;;5076136;28;20048;-74
2022/01/26 19:19:10;;;;;;;59.10;19.50;;;;;;;;;;5092399;28;20074;-74
2022/01/26 19:21:53;;;;;;;43.55;17.98;;;;;;;;;;5084578;28;20072;-74
2022/01/26 19:24:50;;;;;;;47.30;20.40;;;;;;;;;;5092577;28;20043;-73
2022/01/26 19:27:26;;;;;;;49.10;18.08;;;;;;;;;;5097870;28;20110;-73
2022/01/26 19:43:53;;;;;;;54.55;18.45;;;;;;;;;;5106969;28;20472;-73
2022/01/26 19:46:30;;;;;;;53.58;20.52;;;;;;;;;;5106674;28;20131;-73
2022/01/26 19:54:25;;;;;;;48.92;20.98;;;;;;;;;;5091856;28;20047;-73
2022/01/26 19:56:51;;;;;;;51.17;19.75;;;;;;;;;;5091818;28;20036;-73
2022/01/26 19:59:17;;;;;;;60.65;22.02;;;;;;;;;;5086775;28;20040;-73
2022/01/26 20:01:44;;;;;;;60.13;22.13;;;;;;;;;;5093115;28;20036;-74
2022/01/26 20:04:10;;;;;;;56.85;20.13;;;;;;;;;;5094609;28;20071;-73
2022/01/26 20:06:36;;;;;;;52.70;19.75;;;7.20;99.90;;;;;;5112632;28;20043;-74
2022/01/26 20:09:13;;;;;;;50.47;19.23;;;6.40;99.90;;;;;;5077116;28;20075;-74
2022/01/26 20:11:44;;;;;;;59.22;20.63;;;;;;;;;;5095252;28;20040;-74
2022/01/26 20:14:10;;;;;;;54.40;19.30;;;;;;;;;;5113411;28;20087;-73
2022/01/26 20:16:36;;;;;;;64.32;20.95;;;;;;;;;;5116362;28;20046;-73
2022/01/26 20:19:04;;;;;;;50.33;18.75;;;6.60;99.90;;;;;;5104016;28;20125;-74
2022/01/26 20:21:30;;;;;;;52.30;20.20;;;;;;;;;;5098821;28;20096;-74
2022/01/26 20:23:56;;;;;;;55.95;19.23;;;;;;;;;;5088386;28;20035;-74
2022/01/26 20:26:22;;;;;;;51.03;17.65;;;;;;;;;;5099252;28;20484;-73
2022/01/26 20:28:49;;;;;;;55.28;19.40;;;;;;;;;;5087131;28;20043;-74
2022/01/26 20:31:24;;;;;;;47.72;17.42;;;;;;;;;;5099394;28;20039;-74
2022/01/26 20:33:53;;;;;;;45.97;17.60;;;7.00;99.90;;;;;;5103215;28;20070;-74
2022/01/26 20:36:21;;;;;;;48.58;16.83;;;6.80;99.90;;;;;;5095393;28;20072;-74
2022/01/26 20:38:47;;;;;;;40.78;16.92;;;;;;;;;;5087825;28;20085;-74
2022/01/26 20:41:14;;;;;;;44.20;15.88;;;6.80;99.90;;;;;;5095440;28;20036;-74
2022/01/26 20:43:40;;;;;;;43.00;18.00;;;;;;;;;;5102617;28;20055;-74
2022/01/26 20:46:09;;;;;;;56.92;18.02;;;;;;;;;;5095299;28;20047;-74
2022/01/26 20:48:35;;;;;;;43.75;16.27;;;;;;;;;;5096232;28;20044;-74
2022/01/26 20:51:01;;;;;;;46.13;16.88;;;;;;;;;;5111388;28;20408;-74
2022/01/26 20:53:27;;;;;;;49.63;17.73;;;6.60;99.90;;;;;;5113403;28;20039;-74